sensor_id;sensor_type;location;lat;lon;timestamp;P1;durP1;ratioP1;P2;durP2;ratioP2
20976;SDS011;10647;51.016;3.720;2023-06-22T00:01:05;8.65;;;4.22;;
20976;SDS011;10647;51.016;3.720;2023-06-22T00:03:33;6.95;;;4.05;;
20976;SDS011;10647;51.016;3.720;2023-06-22T00:06:01;7.78;;;4.20;;
20976;SDS011;10647;51.016;3.720;2023-06-22T00:08:28;8.63;;;4.45;;
20976;SDS011;10647;51.016;3.720;2023-06-22T00:11:01;8.43;;;4.28;;
20976;SDS011;10647;51.016;3.720;2023-06-22T00:13:29;9.38;;;5.35;;
20976;SDS011;10647;51.016;3.720;2023-06-22T00:15:57;9.10;;;5.45;;
20976;SDS011;10647;51.016;3.720;2023-06-22T00:18:25;10.88;;;6.65;;
20976;SDS011;10647;51.016;3.720;2023-06-22T00:20:58;11.65;;;7.00;;
20976;SDS011;10647;51.016;3.720;2023-06-22T00:23:25;15.53;;;7.60;;
20976;SDS011;10647;51.016;3.720;2023-06-22T00:25:53;14.05;;;8.05;;
20976;SDS011;10647;51.016;3.720;2023-06-22T00:28:20;11.55;;;7.05;;
20976;SDS011;10647;51.016;3.720;2023-06-22T00:30:53;14.55;;;7.10;;
20976;SDS011;10647;51.016;3.720;2023-06-22T00:33:17;13.38;;;6.70;;
20976;SDS011;10647;51.016;3.720;2023-06-22T00:35:45;13.48;;;7.05;;
20976;SDS011;10647;51.016;3.720;2023-06-22T00:38:12;12.03;;;6.42;;
20976;SDS011;10647;51.016;3.720;2023-06-22T00:40:40;11.85;;;7.00;;
20976;SDS011;10647;51.016;3.720;2023-06-22T00:43:07;10.68;;;6.85;;
20976;SDS011;10647;51.016;3.720;2023-06-22T00:45:35;13.78;;;7.20;;
20976;SDS011;10647;51.016;3.720;2023-06-22T00:48:02;10.30;;;6.62;;
20976;SDS011;10647;51.016;3.720;2023-06-22T00:50:31;13.32;;;7.08;;
20976;SDS011;10647;51.016;3.720;2023-06-22T00:53:05;10.03;;;6.65;;
20976;SDS011;10647;51.016;3.720;2023-06-22T00:55:33;14.28;;;7.20;;
20976;SDS011;10647;51.016;3.720;2023-06-22T00:58:06;12.23;;;6.83;;
20976;SDS011;10647;51.016;3.720;2023-06-22T01:00:36;11.53;;;6.22;;
20976;SDS011;10647;51.016;3.720;2023-06-22T01:03:04;9.15;;;5.45;;
20976;SDS011;10647;51.016;3.720;2023-06-22T01:05:33;8.00;;;5.00;;
20976;SDS011;10647;51.016;3.720;2023-06-22T01:13:27;6.83;;;4.00;;
20976;SDS011;10647;51.016;3.720;2023-06-22T01:16:16;5.83;;;3.92;;
20976;SDS011;10647;51.016;3.720;2023-06-22T01:19:51;7.15;;;4.15;;
20976;SDS011;10647;51.016;3.720;2023-06-22T01:21:51;6.20;;;3.80;;
20976;SDS011;10647;51.016;3.720;2023-06-22T01:24:30;6.58;;;4.08;;
20976;SDS011;10647;51.016;3.720;2023-06-22T01:27:47;5.55;;;3.40;;
20976;SDS011;10647;51.016;3.720;2023-06-22T01:29:37;5.35;;;3.08;;
20976;SDS011;10647;51.016;3.720;2023-06-22T01:32:08;5.05;;;2.65;;
20976;SDS011;10647;51.016;3.720;2023-06-22T01:34:38;6.85;;;3.37;;
20976;SDS011;10647;51.016;3.720;2023-06-22T01:37:06;4.78;;;2.70;;
20976;SDS011;10647;51.016;3.720;2023-06-22T01:39:35;6.17;;;2.67;;
20976;SDS011;10647;51.016;3.720;2023-06-22T01:42:03;5.22;;;3.10;;
20976;SDS011;10647;51.016;3.720;2023-06-22T01:44:31;4.87;;;3.25;;
20976;SDS011;10647;51.016;3.720;2023-06-22T01:47:00;4.45;;;2.98;;
20976;SDS011;10647;51.016;3.720;2023-06-22T01:49:28;5.30;;;2.80;;
20976;SDS011;10647;51.016;3.720;2023-06-22T01:51:56;7.25;;;3.02;;
20976;SDS011;10647;51.016;3.720;2023-06-22T01:54:24;5.50;;;2.95;;
20976;SDS011;10647;51.016;3.720;2023-06-22T01:56:52;4.70;;;2.55;;
20976;SDS011;10647;51.016;3.720;2023-06-22T01:59:26;4.85;;;2.70;;
20976;SDS011;10647;51.016;3.720;2023-06-22T02:02:11;3.98;;;2.87;;
20976;SDS011;10647;51.016;3.720;2023-06-22T02:04:43;4.70;;;2.95;;
20976;SDS011;10647;51.016;3.720;2023-06-22T02:07:13;5.50;;;3.40;;
20976;SDS011;10647;51.016;3.720;2023-06-22T02:09:46;5.72;;;3.10;;
20976;SDS011;10647;51.016;3.720;2023-06-22T02:12:17;5.00;;;2.83;;
20976;SDS011;10647;51.016;3.720;2023-06-22T02:14:46;4.33;;;2.70;;
20976;SDS011;10647;51.016;3.720;2023-06-22T02:17:16;5.10;;;2.70;;
20976;SDS011;10647;51.016;3.720;2023-06-22T02:19:44;3.75;;;2.52;;
20976;SDS011;10647;51.016;3.720;2023-06-22T02:22:12;4.70;;;2.75;;
20976;SDS011;10647;51.016;3.720;2023-06-22T02:24:39;3.87;;;2.58;;
20976;SDS011;10647;51.016;3.720;2023-06-22T02:27:07;5.17;;;3.42;;
20976;SDS011;10647;51.016;3.720;2023-06-22T02:29:34;6.90;;;3.50;;
20976;SDS011;10647;51.016;3.720;2023-06-22T02:32:02;5.67;;;3.52;;
20976;SDS011;10647;51.016;3.720;2023-06-22T02:34:30;5.75;;;3.35;;
20976;SDS011;10647;51.016;3.720;2023-06-22T02:36:59;6.05;;;4.10;;
20976;SDS011;10647;51.016;3.720;2023-06-22T02:39:28;7.97;;;3.65;;
20976;SDS011;10647;51.016;3.720;2023-06-22T02:41:55;5.97;;;3.72;;
20976;SDS011;10647;51.016;3.720;2023-06-22T02:44:23;5.25;;;3.45;;
20976;SDS011;10647;51.016;3.720;2023-06-22T02:46:50;5.03;;;3.45;;
20976;SDS011;10647;51.016;3.720;2023-06-22T02:49:19;9.03;;;3.65;;
20976;SDS011;10647;51.016;3.720;2023-06-22T02:51:48;5.60;;;3.22;;
20976;SDS011;10647;51.016;3.720;2023-06-22T02:54:16;5.17;;;3.27;;
20976;SDS011;10647;51.016;3.720;2023-06-22T02:56:43;6.22;;;3.45;;
20976;SDS011;10647;51.016;3.720;2023-06-22T02:59:11;7.03;;;3.58;;
20976;SDS011;10647;51.016;3.720;2023-06-22T03:01:38;7.47;;;3.70;;
20976;SDS011;10647;51.016;3.720;2023-06-22T03:04:07;7.62;;;3.80;;
20976;SDS011;10647;51.016;3.720;2023-06-22T03:06:35;7.55;;;4.03;;
20976;SDS011;10647;51.016;3.720;2023-06-22T03:09:05;5.30;;;3.70;;
20976;SDS011;10647;51.016;3.720;2023-06-22T03:11:33;6.65;;;3.50;;
20976;SDS011;10647;51.016;3.720;2023-06-22T03:14:02;7.12;;;4.15;;
20976;SDS011;10647;51.016;3.720;2023-06-22T03:16:30;6.15;;;3.50;;
20976;SDS011;10647;51.016;3.720;2023-06-22T03:18:58;5.85;;;3.77;;
20976;SDS011;10647;51.016;3.720;2023-06-22T03:21:29;6.58;;;3.65;;
20976;SDS011;10647;51.016;3.720;2023-06-22T03:23:57;7.83;;;4.40;;
20976;SDS011;10647;51.016;3.720;2023-06-22T03:26:25;7.80;;;4.00;;
20976;SDS011;10647;51.016;3.720;2023-06-22T03:28:54;6.67;;;4.28;;
20976;SDS011;10647;51.016;3.720;2023-06-22T03:31:21;6.60;;;4.23;;
20976;SDS011;10647;51.016;3.720;2023-06-22T03:33:49;7.62;;;4.53;;
20976;SDS011;10647;51.016;3.720;2023-06-22T03:36:17;6.37;;;4.40;;
20976;SDS011;10647;51.016;3.720;2023-06-22T03:38:51;7.72;;;5.20;;
20976;SDS011;10647;51.016;3.720;2023-06-22T03:41:15;7.70;;;4.03;;
20976;SDS011;10647;51.016;3.720;2023-06-22T03:43:43;7.72;;;4.35;;
20976;SDS011;10647;51.016;3.720;2023-06-22T03:46:10;7.47;;;4.30;;
20976;SDS011;10647;51.016;3.720;2023-06-22T03:48:38;6.70;;;3.90;;
20976;SDS011;10647;51.016;3.720;2023-06-22T03:51:05;8.75;;;3.58;;
20976;SDS011;10647;51.016;3.720;2023-06-22T03:53:33;5.97;;;3.90;;
20976;SDS011;10647;51.016;3.720;2023-06-22T03:56:00;11.48;;;5.33;;
20976;SDS011;10647;51.016;3.720;2023-06-22T03:58:28;10.88;;;4.92;;
20976;SDS011;10647;51.016;3.720;2023-06-22T04:00:57;11.28;;;6.20;;
20976;SDS011;10647;51.016;3.720;2023-06-22T04:03:25;12.20;;;5.75;;
20976;SDS011;10647;51.016;3.720;2023-06-22T04:05:53;14.73;;;5.97;;
20976;SDS011;10647;51.016;3.720;2023-06-22T04:08:20;15.08;;;6.33;;
20976;SDS011;10647;51.016;3.720;2023-06-22T04:10:48;12.93;;;6.22;;
20976;SDS011;10647;51.016;3.720;2023-06-22T04:13:15;14.13;;;6.37;;
20976;SDS011;10647;51.016;3.720;2023-06-22T04:15:44;16.62;;;6.28;;
20976;SDS011;10647;51.016;3.720;2023-06-22T04:18:11;12.78;;;6.12;;
20976;SDS011;10647;51.016;3.720;2023-06-22T04:20:39;17.67;;;6.30;;
20976;SDS011;10647;51.016;3.720;2023-06-22T04:23:06;19.27;;;6.85;;
20976;SDS011;10647;51.016;3.720;2023-06-22T04:25:34;18.80;;;7.30;;
20976;SDS011;10647;51.016;3.720;2023-06-22T04:28:01;16.37;;;7.20;;
20976;SDS011;10647;51.016;3.720;2023-06-22T04:30:30;17.65;;;6.80;;
20976;SDS011;10647;51.016;3.720;2023-06-22T04:32:59;20.80;;;6.80;;
20976;SDS011;10647;51.016;3.720;2023-06-22T04:35:26;24.90;;;7.03;;
20976;SDS011;10647;51.016;3.720;2023-06-22T04:37:55;20.43;;;6.92;;
20976;SDS011;10647;51.016;3.720;2023-06-22T04:40:42;18.27;;;7.17;;
20976;SDS011;10647;51.016;3.720;2023-06-22T04:43:10;16.12;;;7.50;;
20976;SDS011;10647;51.016;3.720;2023-06-22T04:45:37;18.23;;;7.70;;
20976;SDS011;10647;51.016;3.720;2023-06-22T04:48:05;23.40;;;6.90;;
20976;SDS011;10647;51.016;3.720;2023-06-22T04:50:38;13.90;;;7.33;;
20976;SDS011;10647;51.016;3.720;2023-06-22T04:53:05;16.82;;;7.33;;
20976;SDS011;10647;51.016;3.720;2023-06-22T04:55:35;18.52;;;7.28;;
20976;SDS011;10647;51.016;3.720;2023-06-22T04:58:05;18.02;;;7.87;;
20976;SDS011;10647;51.016;3.720;2023-06-22T05:00:32;19.20;;;9.28;;
20976;SDS011;10647;51.016;3.720;2023-06-22T05:03:01;21.25;;;8.28;;
20976;SDS011;10647;51.016;3.720;2023-06-22T05:05:29;17.15;;;8.53;;
20976;SDS011;10647;51.016;3.720;2023-06-22T05:07:57;18.85;;;8.73;;
20976;SDS011;10647;51.016;3.720;2023-06-22T05:10:27;17.82;;;8.90;;
20976;SDS011;10647;51.016;3.720;2023-06-22T05:12:55;18.12;;;9.25;;
20976;SDS011;10647;51.016;3.720;2023-06-22T05:15:22;15.85;;;8.85;;
20976;SDS011;10647;51.016;3.720;2023-06-22T05:17:51;14.78;;;9.15;;
20976;SDS011;10647;51.016;3.720;2023-06-22T05:20:19;18.05;;;8.98;;
20976;SDS011;10647;51.016;3.720;2023-06-22T05:22:48;15.13;;;7.95;;
20976;SDS011;10647;51.016;3.720;2023-06-22T05:25:15;14.33;;;8.13;;
20976;SDS011;10647;51.016;3.720;2023-06-22T05:27:43;15.30;;;7.62;;
20976;SDS011;10647;51.016;3.720;2023-06-22T05:30:11;13.20;;;7.37;;
20976;SDS011;10647;51.016;3.720;2023-06-22T05:32:39;14.50;;;7.55;;
20976;SDS011;10647;51.016;3.720;2023-06-22T05:35:08;18.07;;;7.37;;
20976;SDS011;10647;51.016;3.720;2023-06-22T05:37:35;14.93;;;7.12;;
20976;SDS011;10647;51.016;3.720;2023-06-22T05:40:03;12.20;;;7.45;;
20976;SDS011;10647;51.016;3.720;2023-06-22T05:42:33;14.15;;;7.40;;
20976;SDS011;10647;51.016;3.720;2023-06-22T05:45:00;13.32;;;7.22;;
20976;SDS011;10647;51.016;3.720;2023-06-22T05:47:28;15.63;;;7.62;;
20976;SDS011;10647;51.016;3.720;2023-06-22T05:49:55;12.70;;;7.25;;
20976;SDS011;10647;51.016;3.720;2023-06-22T05:52:24;12.20;;;7.37;;
20976;SDS011;10647;51.016;3.720;2023-06-22T05:54:52;15.15;;;8.18;;
20976;SDS011;10647;51.016;3.720;2023-06-22T05:57:20;15.90;;;8.15;;
20976;SDS011;10647;51.016;3.720;2023-06-22T05:59:48;16.12;;;8.15;;
20976;SDS011;10647;51.016;3.720;2023-06-22T06:02:15;13.43;;;8.00;;
20976;SDS011;10647;51.016;3.720;2023-06-22T06:04:43;12.15;;;7.78;;
20976;SDS011;10647;51.016;3.720;2023-06-22T06:07:10;12.82;;;8.40;;
20976;SDS011;10647;51.016;3.720;2023-06-22T06:09:38;16.15;;;8.20;;
20976;SDS011;10647;51.016;3.720;2023-06-22T06:12:05;14.90;;;8.78;;
20976;SDS011;10647;51.016;3.720;2023-06-22T06:14:33;13.98;;;9.10;;
20976;SDS011;10647;51.016;3.720;2023-06-22T06:17:01;14.93;;;8.83;;
20976;SDS011;10647;51.016;3.720;2023-06-22T06:19:28;16.90;;;9.48;;
20976;SDS011;10647;51.016;3.720;2023-06-22T06:21:56;18.30;;;9.40;;
20976;SDS011;10647;51.016;3.720;2023-06-22T06:24:23;14.33;;;9.48;;
20976;SDS011;10647;51.016;3.720;2023-06-22T06:26:51;14.50;;;10.05;;
20976;SDS011;10647;51.016;3.720;2023-06-22T06:29:18;17.25;;;11.25;;
20976;SDS011;10647;51.016;3.720;2023-06-22T06:31:46;18.45;;;11.12;;
20976;SDS011;10647;51.016;3.720;2023-06-22T06:34:14;20.77;;;11.88;;
20976;SDS011;10647;51.016;3.720;2023-06-22T06:36:41;16.67;;;11.85;;
20976;SDS011;10647;51.016;3.720;2023-06-22T06:39:10;17.73;;;12.33;;
20976;SDS011;10647;51.016;3.720;2023-06-22T06:41:37;19.50;;;12.10;;
20976;SDS011;10647;51.016;3.720;2023-06-22T06:44:05;20.88;;;12.28;;
20976;SDS011;10647;51.016;3.720;2023-06-22T06:46:32;19.05;;;12.25;;
20976;SDS011;10647;51.016;3.720;2023-06-22T06:49:00;20.62;;;12.70;;
20976;SDS011;10647;51.016;3.720;2023-06-22T06:51:27;18.98;;;13.15;;
20976;SDS011;10647;51.016;3.720;2023-06-22T06:53:55;21.87;;;13.08;;
20976;SDS011;10647;51.016;3.720;2023-06-22T06:56:22;19.40;;;13.95;;
20976;SDS011;10647;51.016;3.720;2023-06-22T06:58:50;21.70;;;13.50;;
20976;SDS011;10647;51.016;3.720;2023-06-22T07:01:18;20.05;;;13.60;;
20976;SDS011;10647;51.016;3.720;2023-06-22T07:03:45;18.95;;;12.82;;
20976;SDS011;10647;51.016;3.720;2023-06-22T07:06:13;19.57;;;13.65;;
20976;SDS011;10647;51.016;3.720;2023-06-22T07:08:42;22.48;;;13.80;;
20976;SDS011;10647;51.016;3.720;2023-06-22T07:11:09;19.98;;;13.03;;
20976;SDS011;10647;51.016;3.720;2023-06-22T07:13:37;18.45;;;13.93;;
20976;SDS011;10647;51.016;3.720;2023-06-22T07:16:04;18.95;;;12.55;;
20976;SDS011;10647;51.016;3.720;2023-06-22T07:18:32;18.48;;;13.78;;
20976;SDS011;10647;51.016;3.720;2023-06-22T07:21:00;17.77;;;13.65;;
20976;SDS011;10647;51.016;3.720;2023-06-22T07:23:28;19.52;;;12.80;;
20976;SDS011;10647;51.016;3.720;2023-06-22T07:25:56;21.30;;;13.38;;
20976;SDS011;10647;51.016;3.720;2023-06-22T07:28:23;20.52;;;13.35;;
20976;SDS011;10647;51.016;3.720;2023-06-22T07:30:51;18.82;;;13.18;;
20976;SDS011;10647;51.016;3.720;2023-06-22T07:33:18;17.40;;;13.10;;
20976;SDS011;10647;51.016;3.720;2023-06-22T07:35:46;21.27;;;13.75;;
20976;SDS011;10647;51.016;3.720;2023-06-22T07:38:14;18.92;;;12.85;;
20976;SDS011;10647;51.016;3.720;2023-06-22T07:40:41;19.60;;;13.75;;
20976;SDS011;10647;51.016;3.720;2023-06-22T07:43:10;15.53;;;12.95;;
20976;SDS011;10647;51.016;3.720;2023-06-22T07:45:37;15.65;;;13.05;;
20976;SDS011;10647;51.016;3.720;2023-06-22T07:48:06;16.67;;;12.10;;
20976;SDS011;10647;51.016;3.720;2023-06-22T07:50:34;18.12;;;12.70;;
20976;SDS011;10647;51.016;3.720;2023-06-22T07:53:01;19.82;;;12.70;;
20976;SDS011;10647;51.016;3.720;2023-06-22T07:55:29;15.83;;;12.45;;
20976;SDS011;10647;51.016;3.720;2023-06-22T07:57:56;15.83;;;12.88;;
20976;SDS011;10647;51.016;3.720;2023-06-22T08:00:24;20.88;;;12.37;;
20976;SDS011;10647;51.016;3.720;2023-06-22T08:02:51;19.35;;;12.25;;
20976;SDS011;10647;51.016;3.720;2023-06-22T08:05:19;15.43;;;11.40;;
20976;SDS011;10647;51.016;3.720;2023-06-22T08:07:46;23.80;;;12.13;;
20976;SDS011;10647;51.016;3.720;2023-06-22T08:10:14;17.23;;;11.30;;
20976;SDS011;10647;51.016;3.720;2023-06-22T08:12:42;17.25;;;10.80;;
20976;SDS011;10647;51.016;3.720;2023-06-22T08:15:10;19.57;;;12.10;;
20976;SDS011;10647;51.016;3.720;2023-06-22T08:17:38;16.57;;;11.12;;
20976;SDS011;10647;51.016;3.720;2023-06-22T08:20:06;13.83;;;11.30;;
20976;SDS011;10647;51.016;3.720;2023-06-22T08:22:42;15.13;;;10.85;;
20976;SDS011;10647;51.016;3.720;2023-06-22T08:25:10;14.73;;;12.13;;
20976;SDS011;10647;51.016;3.720;2023-06-22T08:27:50;18.17;;;12.00;;
20976;SDS011;10647;51.016;3.720;2023-06-22T08:30:15;15.85;;;11.50;;
20976;SDS011;10647;51.016;3.720;2023-06-22T08:32:44;13.38;;;11.25;;
20976;SDS011;10647;51.016;3.720;2023-06-22T08:35:11;16.02;;;11.25;;
20976;SDS011;10647;51.016;3.720;2023-06-22T08:37:39;19.00;;;12.10;;
20976;SDS011;10647;51.016;3.720;2023-06-22T08:40:07;17.15;;;12.07;;
20976;SDS011;10647;51.016;3.720;2023-06-22T08:42:37;15.15;;;11.88;;
20976;SDS011;10647;51.016;3.720;2023-06-22T08:45:07;21.97;;;13.03;;
20976;SDS011;10647;51.016;3.720;2023-06-22T08:47:35;17.92;;;12.07;;
20976;SDS011;10647;51.016;3.720;2023-06-22T08:50:03;19.05;;;12.55;;
20976;SDS011;10647;51.016;3.720;2023-06-22T08:52:32;17.27;;;12.50;;
20976;SDS011;10647;51.016;3.720;2023-06-22T08:54:59;19.70;;;13.50;;
20976;SDS011;10647;51.016;3.720;2023-06-22T08:57:28;17.48;;;13.98;;
20976;SDS011;10647;51.016;3.720;2023-06-22T08:59:56;19.90;;;13.90;;
20976;SDS011;10647;51.016;3.720;2023-06-22T09:02:26;20.02;;;14.23;;
20976;SDS011;10647;51.016;3.720;2023-06-22T09:04:59;19.73;;;14.23;;
20976;SDS011;10647;51.016;3.720;2023-06-22T09:07:28;22.65;;;14.70;;
20976;SDS011;10647;51.016;3.720;2023-06-22T09:09:56;20.32;;;14.00;;
20976;SDS011;10647;51.016;3.720;2023-06-22T09:12:23;17.17;;;13.55;;
20976;SDS011;10647;51.016;3.720;2023-06-22T09:14:53;24.70;;;15.45;;
20976;SDS011;10647;51.016;3.720;2023-06-22T09:17:20;17.85;;;12.95;;
20976;SDS011;10647;51.016;3.720;2023-06-22T09:19:48;21.05;;;14.75;;
20976;SDS011;10647;51.016;3.720;2023-06-22T09:22:16;19.02;;;13.10;;
20976;SDS011;10647;51.016;3.720;2023-06-22T09:24:43;19.15;;;13.70;;
20976;SDS011;10647;51.016;3.720;2023-06-22T09:27:11;19.95;;;13.68;;
20976;SDS011;10647;51.016;3.720;2023-06-22T09:29:38;19.17;;;13.55;;
20976;SDS011;10647;51.016;3.720;2023-06-22T09:32:06;17.40;;;13.43;;
20976;SDS011;10647;51.016;3.720;2023-06-22T09:34:34;19.52;;;14.78;;
20976;SDS011;10647;51.016;3.720;2023-06-22T09:37:01;21.93;;;14.58;;
20976;SDS011;10647;51.016;3.720;2023-06-22T09:39:29;22.55;;;15.83;;
20976;SDS011;10647;51.016;3.720;2023-06-22T09:41:59;22.22;;;15.93;;
20976;SDS011;10647;51.016;3.720;2023-06-22T09:44:27;23.05;;;16.27;;
20976;SDS011;10647;51.016;3.720;2023-06-22T09:46:55;24.32;;;16.60;;
20976;SDS011;10647;51.016;3.720;2023-06-22T09:49:22;20.77;;;15.88;;
20976;SDS011;10647;51.016;3.720;2023-06-22T09:51:50;23.95;;;16.65;;
20976;SDS011;10647;51.016;3.720;2023-06-22T09:54:18;27.82;;;18.52;;
20976;SDS011;10647;51.016;3.720;2023-06-22T09:56:45;34.27;;;19.52;;
20976;SDS011;10647;51.016;3.720;2023-06-22T09:59:13;26.17;;;19.17;;
20976;SDS011;10647;51.016;3.720;2023-06-22T10:01:41;34.98;;;19.98;;
20976;SDS011;10647;51.016;3.720;2023-06-22T10:04:08;34.00;;;18.48;;
20976;SDS011;10647;51.016;3.720;2023-06-22T10:06:36;27.73;;;18.20;;
20976;SDS011;10647;51.016;3.720;2023-06-22T10:09:05;27.58;;;18.70;;
20976;SDS011;10647;51.016;3.720;2023-06-22T10:11:33;29.70;;;18.70;;
20976;SDS011;10647;51.016;3.720;2023-06-22T10:14:01;28.12;;;18.70;;
20976;SDS011;10647;51.016;3.720;2023-06-22T10:16:30;36.70;;;18.75;;
20976;SDS011;10647;51.016;3.720;2023-06-22T10:18:58;29.30;;;18.37;;
20976;SDS011;10647;51.016;3.720;2023-06-22T10:21:26;30.68;;;18.67;;
20976;SDS011;10647;51.016;3.720;2023-06-22T10:23:54;26.23;;;17.37;;
20976;SDS011;10647;51.016;3.720;2023-06-22T10:26:22;25.10;;;16.75;;
20976;SDS011;10647;51.016;3.720;2023-06-22T10:28:50;28.30;;;15.98;;
20976;SDS011;10647;51.016;3.720;2023-06-22T10:31:17;23.40;;;16.52;;
20976;SDS011;10647;51.016;3.720;2023-06-22T10:33:45;22.82;;;15.65;;
20976;SDS011;10647;51.016;3.720;2023-06-22T10:36:12;34.67;;;18.45;;
20976;SDS011;10647;51.016;3.720;2023-06-22T10:38:40;27.20;;;17.37;;
20976;SDS011;10647;51.016;3.720;2023-06-22T10:41:07;27.17;;;16.87;;
20976;SDS011;10647;51.016;3.720;2023-06-22T10:43:35;32.63;;;18.70;;
20976;SDS011;10647;51.016;3.720;2023-06-22T10:46:02;35.10;;;18.87;;
20976;SDS011;10647;51.016;3.720;2023-06-22T10:48:30;30.00;;;18.92;;
20976;SDS011;10647;51.016;3.720;2023-06-22T10:50:57;32.28;;;18.30;;
20976;SDS011;10647;51.016;3.720;2023-06-22T10:53:25;27.00;;;17.80;;
20976;SDS011;10647;51.016;3.720;2023-06-22T10:55:52;29.85;;;18.50;;
20976;SDS011;10647;51.016;3.720;2023-06-22T10:58:20;34.43;;;20.85;;
20976;SDS011;10647;51.016;3.720;2023-06-22T11:00:48;29.12;;;19.23;;
20976;SDS011;10647;51.016;3.720;2023-06-22T11:03:15;38.67;;;21.10;;
20976;SDS011;10647;51.016;3.720;2023-06-22T11:05:42;40.75;;;21.87;;
20976;SDS011;10647;51.016;3.720;2023-06-22T11:08:10;41.73;;;23.67;;
20976;SDS011;10647;51.016;3.720;2023-06-22T11:10:39;48.28;;;24.55;;
20976;SDS011;10647;51.016;3.720;2023-06-22T11:13:06;49.08;;;24.80;;
20976;SDS011;10647;51.016;3.720;2023-06-22T11:15:35;52.35;;;26.37;;
20976;SDS011;10647;51.016;3.720;2023-06-22T11:18:03;47.13;;;24.70;;
20976;SDS011;10647;51.016;3.720;2023-06-22T11:20:33;55.88;;;27.62;;
20976;SDS011;10647;51.016;3.720;2023-06-22T11:23:02;46.35;;;25.20;;
20976;SDS011;10647;51.016;3.720;2023-06-22T11:25:30;46.33;;;24.35;;
20976;SDS011;10647;51.016;3.720;2023-06-22T11:27:57;47.50;;;21.90;;
20976;SDS011;10647;51.016;3.720;2023-06-22T11:30:25;40.73;;;20.45;;
20976;SDS011;10647;51.016;3.720;2023-06-22T11:32:53;30.82;;;18.00;;
20976;SDS011;10647;51.016;3.720;2023-06-22T11:35:21;36.58;;;17.75;;
20976;SDS011;10647;51.016;3.720;2023-06-22T11:37:49;34.43;;;18.27;;
20976;SDS011;10647;51.016;3.720;2023-06-22T11:40:16;27.10;;;15.93;;
20976;SDS011;10647;51.016;3.720;2023-06-22T11:42:44;27.65;;;15.63;;
20976;SDS011;10647;51.016;3.720;2023-06-22T11:45:11;31.45;;;16.45;;
20976;SDS011;10647;51.016;3.720;2023-06-22T11:47:39;31.23;;;14.50;;
20976;SDS011;10647;51.016;3.720;2023-06-22T11:50:07;31.20;;;15.03;;
20976;SDS011;10647;51.016;3.720;2023-06-22T11:52:35;24.82;;;12.75;;
20976;SDS011;10647;51.016;3.720;2023-06-22T11:55:02;22.62;;;11.90;;
20976;SDS011;10647;51.016;3.720;2023-06-22T11:57:36;20.57;;;11.90;;
20976;SDS011;10647;51.016;3.720;2023-06-22T12:00:04;20.25;;;11.15;;
20976;SDS011;10647;51.016;3.720;2023-06-22T12:02:34;20.50;;;11.48;;
20976;SDS011;10647;51.016;3.720;2023-06-22T12:05:01;23.92;;;11.35;;
20976;SDS011;10647;51.016;3.720;2023-06-22T12:07:30;21.62;;;10.63;;
20976;SDS011;10647;51.016;3.720;2023-06-22T12:09:57;21.40;;;11.35;;
20976;SDS011;10647;51.016;3.720;2023-06-22T12:12:25;19.50;;;10.58;;
20976;SDS011;10647;51.016;3.720;2023-06-22T12:14:54;21.33;;;10.25;;
20976;SDS011;10647;51.016;3.720;2023-06-22T12:17:22;24.95;;;10.40;;
20976;SDS011;10647;51.016;3.720;2023-06-22T12:19:50;17.98;;;10.03;;
20976;SDS011;10647;51.016;3.720;2023-06-22T12:22:17;19.80;;;10.20;;
20976;SDS011;10647;51.016;3.720;2023-06-22T12:24:45;24.27;;;10.85;;
20976;SDS011;10647;51.016;3.720;2023-06-22T12:27:12;22.45;;;11.00;;
20976;SDS011;10647;51.016;3.720;2023-06-22T12:29:45;21.97;;;11.55;;
20976;SDS011;10647;51.016;3.720;2023-06-22T12:32:13;21.37;;;11.53;;
20976;SDS011;10647;51.016;3.720;2023-06-22T12:34:42;21.55;;;11.48;;
20976;SDS011;10647;51.016;3.720;2023-06-22T12:37:10;22.25;;;11.33;;
20976;SDS011;10647;51.016;3.720;2023-06-22T12:39:40;25.05;;;12.93;;
20976;SDS011;10647;51.016;3.720;2023-06-22T12:42:10;28.95;;;12.88;;
20976;SDS011;10647;51.016;3.720;2023-06-22T12:44:38;21.50;;;12.00;;
20976;SDS011;10647;51.016;3.720;2023-06-22T12:47:06;23.15;;;11.88;;
20976;SDS011;10647;51.016;3.720;2023-06-22T12:49:35;28.05;;;13.58;;
20976;SDS011;10647;51.016;3.720;2023-06-22T12:52:08;28.00;;;15.32;;
20976;SDS011;10647;51.016;3.720;2023-06-22T12:54:39;35.65;;;16.32;;
20976;SDS011;10647;51.016;3.720;2023-06-22T12:57:06;36.38;;;19.00;;
20976;SDS011;10647;51.016;3.720;2023-06-22T12:59:34;34.78;;;18.45;;
20976;SDS011;10647;51.016;3.720;2023-06-22T13:02:01;38.28;;;19.67;;
20976;SDS011;10647;51.016;3.720;2023-06-22T13:04:29;37.98;;;19.25;;
20976;SDS011;10647;51.016;3.720;2023-06-22T13:06:56;44.67;;;22.10;;
20976;SDS011;10647;51.016;3.720;2023-06-22T13:09:24;51.02;;;23.40;;
20976;SDS011;10647;51.016;3.720;2023-06-22T13:11:51;49.58;;;21.65;;
20976;SDS011;10647;51.016;3.720;2023-06-22T13:14:19;49.58;;;24.43;;
20976;SDS011;10647;51.016;3.720;2023-06-22T13:16:47;45.50;;;24.20;;
20976;SDS011;10647;51.016;3.720;2023-06-22T13:19:16;45.08;;;23.65;;
20976;SDS011;10647;51.016;3.720;2023-06-22T13:21:43;54.85;;;24.18;;
20976;SDS011;10647;51.016;3.720;2023-06-22T13:24:11;40.03;;;21.85;;
20976;SDS011;10647;51.016;3.720;2023-06-22T13:26:38;56.23;;;26.52;;
20976;SDS011;10647;51.016;3.720;2023-06-22T13:29:06;47.48;;;24.15;;
20976;SDS011;10647;51.016;3.720;2023-06-22T13:31:33;42.53;;;22.65;;
20976;SDS011;10647;51.016;3.720;2023-06-22T13:34:01;35.90;;;22.60;;
20976;SDS011;10647;51.016;3.720;2023-06-22T13:36:28;38.42;;;20.65;;
20976;SDS011;10647;51.016;3.720;2023-06-22T13:38:56;45.12;;;24.67;;
20976;SDS011;10647;51.016;3.720;2023-06-22T13:41:24;35.40;;;20.85;;
20976;SDS011;10647;51.016;3.720;2023-06-22T13:43:51;36.03;;;20.77;;
20976;SDS011;10647;51.016;3.720;2023-06-22T13:46:19;31.25;;;21.37;;
20976;SDS011;10647;51.016;3.720;2023-06-22T13:48:46;33.80;;;20.05;;
20976;SDS011;10647;51.016;3.720;2023-06-22T13:51:14;37.70;;;24.12;;
20976;SDS011;10647;51.016;3.720;2023-06-22T13:53:41;35.30;;;22.17;;
20976;SDS011;10647;51.016;3.720;2023-06-22T13:56:09;32.93;;;22.50;;
20976;SDS011;10647;51.016;3.720;2023-06-22T13:58:36;37.28;;;24.55;;
20976;SDS011;10647;51.016;3.720;2023-06-22T14:01:04;30.82;;;21.75;;
20976;SDS011;10647;51.016;3.720;2023-06-22T14:03:32;38.25;;;23.07;;
20976;SDS011;10647;51.016;3.720;2023-06-22T14:05:59;29.92;;;21.35;;
20976;SDS011;10647;51.016;3.720;2023-06-22T14:08:27;29.37;;;20.92;;
20976;SDS011;10647;51.016;3.720;2023-06-22T14:10:54;28.02;;;19.67;;
20976;SDS011;10647;51.016;3.720;2023-06-22T14:13:22;29.48;;;19.40;;
20976;SDS011;10647;51.016;3.720;2023-06-22T14:15:50;27.05;;;18.85;;
20976;SDS011;10647;51.016;3.720;2023-06-22T14:18:19;30.32;;;17.75;;
20976;SDS011;10647;51.016;3.720;2023-06-22T14:20:48;23.38;;;17.50;;
20976;SDS011;10647;51.016;3.720;2023-06-22T14:23:15;27.98;;;17.90;;
20976;SDS011;10647;51.016;3.720;2023-06-22T14:25:44;25.45;;;17.55;;
20976;SDS011;10647;51.016;3.720;2023-06-22T14:28:11;21.10;;;16.23;;
20976;SDS011;10647;51.016;3.720;2023-06-22T14:30:39;28.60;;;17.15;;
20976;SDS011;10647;51.016;3.720;2023-06-22T14:33:06;27.15;;;16.35;;
20976;SDS011;10647;51.016;3.720;2023-06-22T14:35:34;22.50;;;16.40;;
20976;SDS011;10647;51.016;3.720;2023-06-22T14:38:01;28.50;;;16.45;;
20976;SDS011;10647;51.016;3.720;2023-06-22T14:40:29;22.20;;;16.45;;
20976;SDS011;10647;51.016;3.720;2023-06-22T14:42:56;23.20;;;16.17;;